Time;durP1;ratioP1;P1;durP2;ratioP2;P2;SDS_P1;SDS_P2;PMS_P1;PMS_P2;Temp;Humidity;BMP_temperature;BMP_pressure;BME280_temperature;BME280_humidity;BME280_pressure;Samples;Min_cycle;Max_cycle;Signal;HPM_P1;HPM_P2
2021/03/09 00:00:23;;;;;;;11.70;5.28;;;;;;;-143.98;100.00;68091.63;5054438;28;20144;-80
2021/03/09 00:02:51;;;;;;;14.52;5.38;;;;;;;-143.98;100.00;68091.63;5053713;28;20356;-82
2021/03/09 00:05:28;;;;;;;12.35;6.55;;;;;;;-143.98;100.00;68091.63;5053910;28;20072;-82
2021/03/09 00:08:00;;;;;;;15.20;6.40;;;;;;;-143.98;100.00;68091.63;5055351;28;20064;-79
2021/03/09 00:10:30;;;;;;;12.82;7.20;;;;;;;-143.98;100.00;68091.63;5039812;28;20144;-80
2021/03/09 00:12:57;;;;;;;18.13;8.10;;;;;;;-143.98;100.00;68091.63;5047072;28;20040;-80
2021/03/09 00:15:26;;;;;;;17.90;7.90;;;;;;;-143.98;100.00;68091.63;5071358;28;20037;-81
2021/03/09 00:17:52;;;;;;;18.45;8.93;;;;;;;-143.98;100.00;68091.63;5059260;28;20044;-80
2021/03/09 00:20:18;;;;;;;15.68;8.68;;;;;;;-143.98;100.00;68091.63;5060430;28;20103;-80
2021/03/09 00:22:48;;;;;;;20.92;9.20;;;;;;;-143.98;100.00;68091.63;5052959;28;20053;-80
2021/03/09 00:25:14;;;;;;;20.35;8.77;;;;;;;-143.98;100.00;68091.63;5067183;28;20065;-80
2021/03/09 00:27:41;;;;;;;18.77;9.55;;;;;;;-143.98;100.00;68091.63;5056002;28;20060;-81
2021/03/09 00:30:09;;;;;;;17.60;9.10;;;;;;;-143.98;100.00;68091.63;5055795;28;20072;-81
2021/03/09 00:32:35;;;;;;;19.33;9.80;;;;;;;-143.98;100.00;68091.63;5060070;28;20076;-81
2021/03/09 00:35:02;;;;;;;19.83;10.07;;;;;;;-143.98;100.00;68091.63;5070576;28;20078;-81
2021/03/09 00:37:29;;;;;;;25.90;9.70;;;;;;;-143.98;100.00;68091.63;5062377;28;20333;-81
2021/03/09 00:39:55;;;;;;;25.00;10.95;;;;;;;-143.98;100.00;68091.63;5056438;28;20424;-81
2021/03/09 00:42:21;;;;;;;19.00;10.07;;;;;;;-143.98;100.00;68091.63;5063673;28;20163;-82
2021/03/09 00:44:48;;;;;;;20.75;10.35;;;;;;;-143.98;100.00;68091.63;5061415;28;20081;-81
2021/03/09 00:47:14;;;;;;;21.50;10.80;;;;;;;-143.98;100.00;68091.63;5061093;28;20114;-81
2021/03/09 00:49:40;;;;;;;22.35;11.10;;;;;;;-143.98;100.00;68091.63;5060754;28;20320;-83
2021/03/09 00:52:10;;;;;;;24.15;11.13;;;;;;;-143.98;100.00;68091.63;5058648;28;20053;-81
2021/03/09 00:54:38;;;;;;;26.13;11.20;;;;;;;-143.98;100.00;68091.63;5042211;28;20143;-82
2021/03/09 00:57:04;;;;;;;21.13;10.75;;;;;;;-143.98;100.00;68091.63;5042411;28;20064;-83
2021/03/09 00:59:32;;;;;;;26.83;12.18;;;;;;;-143.98;100.00;68091.63;5042421;28;20056;-83
2021/03/09 01:01:59;;;;;;;28.52;12.48;;;;;;;-143.98;100.00;68091.63;5059513;28;20099;-84
2021/03/09 01:04:25;;;;;;;25.08;11.63;;;;;;;-143.98;100.00;68091.63;5042967;28;20041;-84
2021/03/09 01:06:51;;;;;;;36.15;12.52;;;;;;;-143.98;100.00;68091.63;5043504;28;20053;-84
2021/03/09 01:09:20;;;;;;;26.25;12.20;;;;;;;-143.98;100.00;68091.63;5060074;28;20056;-85
2021/03/09 01:11:47;;;;;;;24.88;12.15;;;;;;;-143.98;100.00;68091.63;5059805;28;20348;-85
2021/03/09 01:14:16;;;;;;;27.08;11.75;;;;;;;-143.98;100.00;68091.63;5065615;28;20055;-85
2021/03/09 01:16:46;;;;;;;30.00;13.32;;;;;;;-143.98;100.00;68091.63;5055160;28;20061;-85
2021/03/09 01:19:13;;;;;;;25.20;13.35;;;;;;;-143.98;100.00;68091.63;5051088;28;20053;-85
2021/03/09 01:21:43;;;;;;;27.80;13.25;;;;;;;-143.98;100.00;68091.63;5064934;28;20136;-85
2021/03/09 01:24:13;;;;;;;34.90;14.18;;;;;;;-143.98;100.00;68091.63;5060775;28;20053;-85
2021/03/09 01:26:40;;;;;;;32.30;13.70;;;;;;;-143.98;100.00;68091.63;5043258;28;20306;-85
2021/03/09 01:29:06;;;;;;;30.17;15.15;;;;;;;-143.98;100.00;68091.63;5044178;28;20139;-86
2021/03/09 01:31:33;;;;;;;31.52;13.70;;;;;;;-143.98;100.00;68091.63;5041466;28;20061;-86
2021/03/09 01:33:59;;;;;;;33.00;14.38;;;;;;;-143.98;100.00;68091.63;5058442;28;20057;-85
2021/03/09 01:36:29;;;;;;;26.73;13.70;;;;;;;-143.98;100.00;68091.63;5041375;28;20064;-85
2021/03/09 01:38:55;;;;;;;36.15;15.02;;;;;;;-143.98;100.00;68091.63;5041203;28;20049;-86
2021/03/09 01:41:21;;;;;;;34.33;15.82;;;;;;;-143.98;100.00;68091.63;5040538;28;20063;-86
2021/03/09 01:43:48;;;;;;;38.83;16.42;;;;;;;-143.98;100.00;68091.63;5039850;28;20063;-86
2021/03/09 01:46:15;;;;;;;28.48;14.48;;;;;;;-143.98;100.00;68091.63;5040414;28;20066;-86
2021/03/09 01:48:44;;;;;;;32.50;15.80;;;;;;;-143.98;100.00;68091.63;5057010;28;20470;-84
2021/03/09 01:51:18;;;;;;;30.88;14.70;;;;;;;-143.98;100.00;68091.63;5038211;28;20480;-84
2021/03/09 01:53:45;;;;;;;36.97;16.52;;;;;;;-143.98;100.00;68091.63;5057247;28;20443;-84
2021/03/09 01:56:12;;;;;;;32.53;16.45;;;;;;;-143.98;100.00;68091.63;5055570;28;20231;-83
2021/03/09 01:58:42;;;;;;;39.15;16.38;;;;;;;-143.98;100.00;68091.63;5073602;28;20347;-85
2021/03/09 02:01:08;;;;;;;39.97;17.48;;;;;;;-143.98;100.00;68091.63;5058438;28;20052;-85
2021/03/09 02:03:35;;;;;;;39.45;18.02;;;;;;;-143.98;100.00;68091.63;5041076;28;20056;-85
2021/03/09 02:06:02;;;;;;;38.67;17.38;;;;;;;-143.98;100.00;68091.63;5041024;28;20059;-84
2021/03/09 02:08:38;;;;;;;43.90;18.25;;;;;;;-143.98;100.00;68091.63;5059974;28;20390;-84
2021/03/09 02:11:10;;;;;;;37.50;17.92;;;;;;;-143.98;100.00;68091.63;5058177;28;20057;-84
2021/03/09 02:14:21;;;;;;;40.38;19.50;;;;;;;-143.98;100.00;68091.63;5057651;28;20057;-84
2021/03/09 02:16:56;;;;;;;36.05;18.15;;;;;;;-143.98;100.00;68091.63;5052701;28;20057;-84
2021/03/09 02:19:50;;;;;;;37.45;18.60;;;;;;;-143.98;100.00;68091.63;5059299;28;20063;-84
2021/03/09 02:22:38;;;;;;;37.30;17.77;;;;;;;-143.98;100.00;68091.63;5057527;28;20048;-85
2021/03/09 02:25:35;;;;;;;41.22;20.23;;;;;;;-143.98;100.00;68091.63;5058927;28;20458;-84
2021/03/09 02:28:24;;;;;;;42.53;20.10;;;;;;;-143.98;100.00;68091.63;5058180;28;20096;-84
2021/03/09 02:30:52;;;;;;;38.40;19.35;;;;;;;-143.98;100.00;68091.63;5057726;28;20049;-84
2021/03/09 02:33:26;;;;;;;41.30;20.30;;;;;;;-143.98;100.00;68091.63;5040570;28;20045;-85
2021/03/09 02:36:09;;;;;;;43.13;19.77;;;;;;;-143.98;100.00;68091.63;5041373;28;20135;-84
2021/03/09 02:39:01;;;;;;;47.88;20.98;;;;;;;-143.98;100.00;68091.63;5043115;28;20063;-85
2021/03/09 02:41:29;;;;;;;48.63;21.23;;;;;;;-143.98;100.00;68091.63;5067237;28;20048;-81
2021/03/09 02:43:57;;;;;;;50.85;21.90;;;;;;;-143.98;100.00;68091.63;5083968;28;20144;-82
2021/03/09 02:46:26;;;;;;;43.65;20.85;;;;;;;-143.98;100.00;68091.63;5064567;28;20052;-82
2021/03/09 02:48:53;;;;;;;44.05;20.80;;;;;;;-143.98;100.00;68091.63;5063926;28;20083;-83
2021/03/09 02:51:25;;;;;;;42.45;20.60;;;;;;;-143.98;100.00;68091.63;5051689;28;20045;-84
2021/03/09 02:53:54;;;;;;;46.13;20.60;;;;;;;-143.98;100.00;68091.63;5035098;28;20068;-83
2021/03/09 02:56:22;;;;;;;51.15;22.08;;;;;;;-143.98;100.00;68091.63;5041755;28;20052;-84
2021/03/09 02:58:50;;;;;;;51.22;22.80;;;;;;;-143.98;100.00;68091.63;5057730;28;20041;-83
2021/03/09 03:01:17;;;;;;;49.42;21.50;;;;;;;-143.98;100.00;68091.63;5038789;28;20057;-86
2021/03/09 03:03:45;;;;;;;54.95;23.88;;;;;;;-143.98;100.00;68091.63;5040658;28;20061;-86
2021/03/09 03:06:11;;;;;;;61.40;24.33;;;;;;;-143.98;100.00;68091.63;5041883;28;20080;-86
2021/03/09 03:08:42;;;;;;;59.85;25.42;;;;;;;-143.98;100.00;68091.63;5023915;28;20394;-86
2021/03/09 03:11:11;;;;;;;49.75;22.45;;;;;;;-143.98;100.00;68091.63;5026482;28;20053;-87
2021/03/09 03:13:39;;;;;;;63.13;25.17;;;;;;;-143.98;100.00;68091.63;5055185;28;20036;-87
2021/03/09 03:16:05;;;;;;;57.00;24.67;;;;;;;-143.98;100.00;68091.63;5048430;28;20042;-87
2021/03/09 03:18:35;;;;;;;56.78;24.80;;;;;;;-143.98;100.00;68091.63;5046516;28;20050;-85
2021/03/09 03:21:08;;;;;;;52.75;23.80;;;;;;;-143.98;100.00;68091.63;5042673;28;20136;-85
2021/03/09 03:23:38;;;;;;;55.83;24.77;;;;;;;-143.98;100.00;68091.63;5042933;28;20487;-85
2021/03/09 03:26:06;;;;;;;62.33;23.38;;;;;;;-143.98;100.00;68091.63;5043855;28;20094;-87
2021/03/09 03:28:37;;;;;;;56.60;26.75;;;;;;;-143.98;100.00;68091.63;5043168;28;20052;-87
2021/03/09 03:31:04;;;;;;;58.15;25.25;;;;;;;-143.98;100.00;68091.63;5042191;28;20053;-86
2021/03/09 03:33:35;;;;;;;59.65;25.17;;;;;;;-143.98;100.00;68091.63;5041602;28;20069;-87
2021/03/09 03:36:05;;;;;;;57.75;25.20;;;;;;;-143.98;100.00;68091.63;5040414;28;20122;-86
2021/03/09 03:38:36;;;;;;;64.05;24.63;;;;;;;-143.98;100.00;68091.63;5042114;28;20053;-86
2021/03/09 03:41:03;;;;;;;71.47;26.98;;;;;;;-143.98;100.00;68091.63;5057107;28;20045;-86
2021/03/09 03:43:31;;;;;;;66.57;27.70;;;;;;;-143.98;100.00;68091.63;5041900;28;20056;-87
2021/03/09 03:45:58;;;;;;;74.15;27.88;;;;;;;-143.98;100.00;68091.63;5042554;28;20044;-87
2021/03/09 03:48:26;;;;;;;60.90;25.95;;;;;;;-143.98;100.00;68091.63;5059877;28;20116;-86
2021/03/09 03:50:55;;;;;;;67.13;26.73;;;;;;;-143.98;100.00;68091.63;5059164;28;20087;-87
2021/03/09 03:53:49;;;;;;;81.35;26.98;;;;;;;-143.98;100.00;68091.63;5051692;28;20041;-87
2021/03/09 03:56:42;;;;;;;59.33;23.77;;;;;;;-143.98;100.00;68091.63;5056140;28;20114;-88
2021/03/09 03:59:12;;;;;;;74.43;28.35;;;;;;;-143.98;100.00;68091.63;5066743;28;20383;-87
2021/03/09 04:01:43;;;;;;;69.95;26.45;;;;;;;-143.98;100.00;68091.63;5062327;28;20391;-87
2021/03/09 04:04:13;;;;;;;83.40;29.17;;;;;;;-143.98;100.00;68091.63;5062533;28;20056;-88
2021/03/09 04:06:54;;;;;;;67.47;25.30;;;;;;;-143.98;100.00;68091.63;5071402;28;20063;-87
2021/03/09 04:09:24;;;;;;;71.68;29.17;;;;;;;-143.98;100.00;68091.63;5076101;28;20195;-86
2021/03/09 04:11:52;;;;;;;67.43;26.73;;;;;;;-143.98;100.00;68091.63;5083278;28;20049;-87
2021/03/09 04:14:24;;;;;;;81.00;29.08;;;;;;;-143.98;100.00;68091.63;5078623;28;20064;-87
2021/03/09 04:16:52;;;;;;;81.03;29.02;;;;;;;-143.98;100.00;68091.63;5078182;28;20044;-88
2021/03/09 04:19:24;;;;;;;69.18;28.95;;;;;;;-143.98;100.00;68091.63;5077489;28;20055;-88
2021/03/09 04:22:06;;;;;;;79.97;29.02;;;;;;;-143.98;100.00;68091.63;5077932;28;20089;-89
2021/03/09 04:24:33;;;;;;;66.55;27.02;;;;;;;-143.98;100.00;68091.63;5061229;28;20055;-89
2021/03/09 04:26:59;;;;;;;64.50;27.05;;;;;;;-143.98;100.00;68091.63;5061847;28;20048;-90
2021/03/09 04:29:31;;;;;;;70.65;28.88;;;;;;;-143.98;100.00;68091.63;5060505;28;20126;-89
2021/03/09 04:32:01;;;;;;;70.45;26.80;;;;;;;-143.98;100.00;68091.63;5059648;28;20048;-86
2021/03/09 04:34:27;;;;;;;76.60;26.80;;;;;;;-143.98;100.00;68091.63;5059279;28;20214;-86
2021/03/09 04:36:57;;;;;;;62.75;26.30;;;;;;;-143.98;100.00;68091.63;5061904;28;20064;-86
2021/03/09 04:39:25;;;;;;;74.82;28.10;;;;;;;-143.98;100.00;68091.63;5049296;28;20097;-86
2021/03/09 04:42:12;;;;;;;73.90;26.80;;;;;;;-143.98;100.00;68091.63;5057750;28;20041;-86
2021/03/09 04:44:58;;;;;;;63.45;26.55;;;;;;;-143.98;100.00;68091.63;5041307;28;20059;-86
2021/03/09 04:47:36;;;;;;;63.25;25.65;;;;;;;-143.98;100.00;68091.63;5087750;28;20106;-86
2021/03/09 04:50:05;;;;;;;81.53;27.20;;;;;;;-143.98;100.00;68091.63;5055759;28;20357;-86
2021/03/09 04:52:32;;;;;;;68.40;26.60;;;;;;;-143.98;100.00;68091.63;5054860;28;20286;-86
2021/03/09 04:54:58;;;;;;;66.13;25.55;;;;;;;-143.98;100.00;68091.63;5053536;28;20045;-85
2021/03/09 04:57:36;;;;;;;62.30;24.73;;;;;;;-143.98;100.00;68091.63;5055078;28;20344;-85
2021/03/09 05:00:08;;;;;;;61.13;25.90;;;;;;;-143.98;100.00;68091.63;5038223;28;20056;-86
2021/03/09 05:02:44;;;;;;;64.70;23.35;;;;;;;-143.98;100.00;68091.63;5069282;28;20310;-86
2021/03/09 05:05:15;;;;;;;61.38;25.67;;;;;;;-143.98;100.00;68091.63;5035680;28;20265;-86
2021/03/09 05:07:46;;;;;;;62.72;25.85;;;;;;;-143.98;100.00;68091.63;5053840;28;20292;-86
2021/03/09 05:10:13;;;;;;;56.92;25.20;;;;;;;-143.98;100.00;68091.63;5086891;28;20406;-86
2021/03/09 05:12:41;;;;;;;63.60;25.38;;;;;;;-143.98;100.00;68091.63;5015983;28;20057;-86
2021/03/09 05:15:09;;;;;;;60.90;23.55;;;;;;;-143.98;100.00;68091.63;5064454;28;20092;-85
2021/03/09 05:17:35;;;;;;;51.83;24.42;;;;;;;-143.98;100.00;68091.63;5016241;28;20113;-84
2021/03/09 05:20:07;;;;;;;59.90;25.55;;;;;;;-143.98;100.00;68091.63;5015436;28;20148;-84
2021/03/09 05:22:40;;;;;;;56.22;23.00;;;;;;;-143.98;100.00;68091.63;5059422;28;20053;-84
2021/03/09 05:25:11;;;;;;;58.47;25.00;;;;;;;-143.98;100.00;68091.63;5036413;28;20077;-84
2021/03/09 05:27:39;;;;;;;52.05;22.55;;;;;;;-143.98;100.00;68091.63;5031063;28;20425;-84
2021/03/09 05:30:10;;;;;;;48.95;22.08;;;;;;;-143.98;100.00;68091.63;5033938;28;20057;-84
2021/03/09 05:32:41;;;;;;;48.28;23.38;;;;;;;-143.98;100.00;68091.63;5034715;28;20053;-83
2021/03/09 05:35:11;;;;;;;47.80;23.92;;;;;;;-143.98;100.00;68091.63;5037904;28;20053;-84
2021/03/09 05:37:38;;;;;;;57.72;22.35;;;;;;;-143.98;100.00;68091.63;5059828;28;20137;-84
2021/03/09 05:40:06;;;;;;;52.75;22.10;;;;;;;-143.98;100.00;68091.63;5048912;28;20059;-84
2021/03/09 05:42:32;;;;;;;46.53;21.80;;;;;;;-143.98;100.00;68091.63;5054681;28;20049;-84
2021/03/09 05:45:09;;;;;;;51.70;21.45;;;;;;;-143.98;100.00;68091.63;5039394;28;20060;-84
2021/03/09 05:47:36;;;;;;;43.30;21.33;;;;;;;-143.98;100.00;68091.63;5040750;28;20045;-85
2021/03/09 05:50:04;;;;;;;53.53;20.55;;;;;;;-143.98;100.00;68091.63;5055524;28;20116;-85
2021/03/09 05:52:34;;;;;;;63.10;22.38;;;;;;;-143.98;100.00;68091.63;5054958;28;20053;-85
2021/03/09 05:55:00;;;;;;;47.85;20.95;;;;;;;-143.98;100.00;68091.63;5055334;28;20049;-86
2021/03/09 05:57:30;;;;;;;40.97;20.17;;;;;;;-143.98;100.00;68091.63;5038654;28;20117;-86
2021/03/09 05:59:58;;;;;;;46.80;20.75;;;;;;;-143.98;100.00;68091.63;5038279;28;20079;-87
2021/03/09 06:02:24;;;;;;;46.47;19.80;;;;;;;-143.98;100.00;68091.63;5054695;28;20152;-86
2021/03/09 06:04:52;;;;;;;50.80;21.75;;;;;;;-143.98;100.00;68091.63;5040032;28;20067;-86
2021/03/09 06:07:26;;;;;;;46.67;22.38;;;;;;;-143.98;100.00;68091.63;5063405;28;20049;-87
2021/03/09 06:09:52;;;;;;;44.72;20.92;;;;;;;-143.98;100.00;68091.63;5061056;28;20068;-85
2021/03/09 06:12:22;;;;;;;48.92;21.48;;;;;;;-143.98;100.00;68091.63;5043354;28;20049;-85
2021/03/09 06:15:01;;;;;;;45.58;23.35;;;;;;;-143.98;100.00;68091.63;5053511;28;20133;-85
2021/03/09 06:17:38;;;;;;;50.45;21.70;;;;;;;-143.98;100.00;68091.63;5067100;28;20123;-86
2021/03/09 06:20:17;;;;;;;45.90;21.90;;;;;;;-143.98;100.00;68091.63;5041463;28;20044;-86
2021/03/09 06:22:45;;;;;;;46.60;20.83;;;;;;;-143.98;100.00;68091.63;5042859;28;20148;-85
2021/03/09 06:25:16;;;;;;;45.03;20.85;;;;;;;-143.98;100.00;68091.63;5065846;28;20056;-86
2021/03/09 06:27:52;;;;;;;46.20;21.90;;;;;;;-143.98;100.00;68091.63;5037083;28;20060;-85
2021/03/09 06:30:29;;;;;;;53.67;22.45;;;;;;;-143.98;100.00;68091.63;5017332;28;20099;-85
2021/03/09 06:32:58;;;;;;;47.50;23.38;;;;;;;-143.98;100.00;68091.63;5032301;28;20144;-86
2021/03/09 06:35:51;;;;;;;133.35;28.98;;;;;;;-143.98;100.00;68091.63;5041167;28;20060;-85
2021/03/09 06:38:30;;;;;;;52.25;23.85;;;;;;;-143.98;100.00;68091.63;5034109;28;20164;-87
2021/03/09 06:41:16;;;;;;;45.45;21.58;;;;;;;-143.98;100.00;68091.63;5056184;28;20220;-87
2021/03/09 06:44:01;;;;;;;42.28;21.58;;;;;;;-143.98;100.00;68091.63;5040440;28;20053;-87
2021/03/09 06:46:28;;;;;;;38.40;18.75;;;;;;;-143.98;100.00;68091.63;5056013;28;20410;-87
2021/03/09 06:49:02;;;;;;;43.28;21.80;;;;;;;-143.98;100.00;68091.63;5064051;28;20088;-87
2021/03/09 06:51:33;;;;;;;42.38;20.90;;;;;;;-143.98;100.00;68091.63;5044041;28;20064;-88
2021/03/09 06:54:11;;;;;;;44.38;20.48;;;;;;;-143.98;100.00;68091.63;5056319;28;20048;-85
2021/03/09 06:56:44;;;;;;;40.47;20.15;;;;;;;-143.98;100.00;68091.63;5053040;28;20075;-85
2021/03/09 06:59:33;;;;;;;55.65;22.90;;;;;;;-143.98;100.00;68091.63;5024918;28;20310;-85
2021/03/09 07:02:07;;;;;;;41.42;20.58;;;;;;;-143.98;100.00;68091.63;5034600;28;20052;-85
2021/03/09 07:04:46;;;;;;;43.67;20.80;;;;;;;-143.98;100.00;68091.63;5040412;28;20055;-85
2021/03/09 07:07:13;;;;;;;;;;;;;;;-143.98;100.00;68091.63;5039505;28;20095;-87
2021/03/09 07:09:41;;;;;;;45.50;21.70;;;;;;;-143.98;100.00;68091.63;5054070;28;20082;-86
2021/03/09 07:12:20;;;;;;;40.10;22.00;;;;;;;-143.98;100.00;68091.63;5039670;28;20128;-86
2021/03/09 07:14:51;;;;;;;43.80;22.05;;;;;;;-143.98;100.00;68091.63;5039949;28;20109;-86
2021/03/09 07:17:30;;;;;;;43.92;22.70;;;;;;;-143.98;100.00;68091.63;5040358;28;20134;-88
2021/03/09 07:20:04;;;;;;;45.08;22.20;;;;;;;-143.98;100.00;68091.63;5056522;28;20095;-87
2021/03/09 07:22:46;;;;;;;;;;;;;;;-143.98;100.00;68091.63;5043674;28;20063;-86
2021/03/09 07:25:14;;;;;;;41.88;19.77;;;;;;;-143.98;100.00;68091.63;5062199;28;19923;-86
2021/03/09 07:27:44;;;;;;;34.72;18.85;;;;;;;-143.98;100.00;68091.63;5052065;28;20120;-86
2021/03/09 07:30:15;;;;;;;37.55;20.58;;;;;;;-143.98;100.00;68091.63;5048458;28;20336;-85
2021/03/09 07:33:20;;;;;;;43.53;19.73;;;;;;;-143.98;100.00;68091.63;5038116;28;20056;-84
2021/03/09 07:35:47;;;;;;;39.22;20.27;;;;;;;-143.98;100.00;68091.63;5082575;28;20312;-86
2021/03/09 07:39:31;;;;;;;36.20;19.42;;;;;;;-143.98;100.00;68091.63;5013392;28;20046;-86
2021/03/09 07:46:08;;;;;;;33.45;18.83;;;;;;;-143.98;100.00;68091.63;4872474;29;20120;-86
2021/03/09 07:48:54;;;;;;;34.53;18.75;;;;;;;-143.98;100.00;68091.63;4890081;29;20064;-87
2021/03/09 07:51:21;;;;;;;36.70;19.55;;;;;;;-143.98;100.00;68091.63;4886624;29;20052;-87
2021/03/09 07:54:09;;;;;;;37.53;19.02;;;;;;;-143.98;100.00;68091.63;4888746;29;20048;-87
2021/03/09 07:57:20;;;;;;;31.02;19.13;;;;;;;-143.98;100.00;68091.63;4930306;29;20624;-89
2021/03/09 08:00:01;;;;;;;38.03;21.52;;;;;;;-143.98;100.00;68091.63;4946598;29;20051;-88
2021/03/09 08:03:03;;;;;;;32.25;19.02;;;;;;;-143.98;100.00;68091.63;4946039;29;20143;-88
2021/03/09 08:05:50;;;;;;;30.73;17.92;;;;;;;-143.98;100.00;68091.63;4956642;28;20038;-88
2021/03/09 08:08:53;;;;;;;33.17;18.98;;;;;;;-143.98;100.00;68091.63;4991724;28;20102;-88
2021/03/09 08:11:28;;;;;;;31.38;17.88;;;;;;;-143.98;100.00;68091.63;4991572;28;20034;-88
2021/03/09 08:13:53;;;;;;;33.13;17.75;;;;;;;-143.98;100.00;68091.63;4987197;28;20360;-87
2021/03/09 08:16:19;;;;;;;35.60;20.08;;;;;;;-143.98;100.00;68091.63;4982493;28;20046;-87
2021/03/09 08:18:55;;;;;;;30.70;17.17;;;;;;;-143.98;100.00;68091.63;5014125;28;20111;-87
2021/03/09 08:21:55;;;;;;;32.92;19.23;;;;;;;-143.98;100.00;68091.63;5060216;28;20454;-89
2021/03/09 08:24:42;;;;;;;31.10;18.95;;;;;;;-143.98;100.00;68091.63;5043201;28;20425;-88
2021/03/09 08:27:30;;;;;;;34.35;18.55;;;;;;;-143.98;100.00;68091.63;5044933;28;20052;-87
2021/03/09 08:30:31;;;;;;;31.58;18.25;;;;;;;-143.98;100.00;68091.63;5063748;28;20041;-87
2021/03/09 08:33:26;;;;;;;37.70;20.23;;;;;;;-143.98;100.00;68091.63;5061318;28;20083;-86
2021/03/09 08:35:57;;;;;;;32.15;17.67;;;;;;;-143.98;100.00;68091.63;5008164;28;20060;-86
2021/03/09 08:38:40;;;;;;;35.10;19.05;;;;;;;-143.98;100.00;68091.63;5021125;28;20049;-85
2021/03/09 08:41:14;;;;;;;37.22;21.60;;;;;;;-143.98;100.00;68091.63;5002714;28;20046;-86
2021/03/09 08:43:44;;;;;;;34.17;19.98;;;;;;;-143.98;100.00;68091.63;5003282;28;20064;-87
2021/03/09 08:46:22;;;;;;;32.08;19.77;;;;;;;-143.98;100.00;68091.63;5021155;28;20050;-86
2021/03/09 08:49:08;;;;;;;34.50;19.17;;;;;;;-143.98;100.00;68091.63;5015280;28;20065;-88
2021/03/09 08:52:01;;;;;;;31.27;19.60;;;;;;;-143.98;100.00;68091.63;5008640;28;20057;-87
2021/03/09 08:54:51;;;;;;;32.45;19.08;;;;;;;-143.98;100.00;68091.63;5039448;28;20049;-88
2021/03/09 09:01:05;;;;;;;25.15;15.38;;;;;;;-143.98;100.00;68091.63;4966764;29;20039;-89
2021/03/09 09:04:30;;;;;;;29.88;17.40;;;;;;;-143.98;100.00;68091.63;4952412;28;20230;-89
2021/03/09 09:07:42;;;;;;;32.60;18.58;;;;;;;-143.98;100.00;68091.63;4976065;28;20057;-88
2021/03/09 09:10:42;;;;;;;;;;;;;;;;;;;;;
2021/03/09 09:13:43;;;;;;;26.85;16.77;;;;;;;-143.98;100.00;68091.63;4993610;28;20055;-90
2021/03/09 09:20:38;;;;;;;30.95;18.63;;;;;;;-143.98;100.00;68091.63;5502800;22;20082;-90
2021/03/09 09:27:17;;;;;;;29.83;17.50;;;;;;;-143.98;100.00;68091.63;5023140;28;20054;-88
2021/03/09 09:30:32;;;;;;;29.55;17.25;;;;;;;-143.98;100.00;68091.63;5044131;28;20083;-87
2021/03/09 09:33:16;;;;;;;38.75;18.45;;;;;;;-143.98;100.00;68091.63;5092283;28;20146;-86
2021/03/09 09:35:48;;;;;;;34.42;18.55;;;;;;;-143.98;100.00;68091.63;5120624;28;20109;-86
2021/03/09 09:38:21;;;;;;;31.35;18.80;;;;;;;-143.98;100.00;68091.63;5071060;28;20039;-85
2021/03/09 09:40:56;;;;;;;33.30;19.05;;;;;;;-143.98;100.00;68091.63;5102544;28;20047;-85
2021/03/09 09:43:27;;;;;;;32.47;18.92;;;;;;;-143.98;100.00;68091.63;5066671;28;20098;-85
2021/03/09 09:45:56;;;;;;;30.45;19.08;;;;;;;-143.98;100.00;68091.63;5082304;28;20056;-85
2021/03/09 09:48:26;;;;;;;34.25;18.85;;;;;;;-143.98;100.00;68091.63;5077398;28;20058;-85
2021/03/09 09:50:55;;;;;;;32.97;18.42;;;;;;;-143.98;100.00;68091.63;5077869;28;20052;-85
2021/03/09 09:53:40;;;;;;;35.15;19.45;;;;;;;-143.98;100.00;68091.63;5076291;28;20066;-85
2021/03/09 09:56:11;;;;;;;37.72;19.08;;;;;;;-143.98;100.00;68091.63;5094086;28;20083;-85
2021/03/09 09:58:52;;;;;;;33.92;19.42;;;;;;;-143.98;100.00;68091.63;5094101;28;20048;-85
2021/03/09 10:01:20;;;;;;;33.53;19.15;;;;;;;-143.98;100.00;68091.63;5078241;28;20141;-86
2021/03/09 10:03:57;;;;;;;32.78;19.13;;;;;;;-143.98;100.00;68091.63;5076830;28;20056;-87
2021/03/09 10:06:28;;;;;;;31.00;18.83;;;;;;;-143.98;100.00;68091.63;5082435;28;20466;-87
2021/03/09 10:09:18;;;;;;;34.78;19.92;;;;;;;-143.98;100.00;68091.63;5083523;28;20056;-87
2021/03/09 10:12:01;;;;;;;42.22;20.63;;;;;;;-143.98;100.00;68091.63;5068419;28;20052;-87
2021/03/09 10:14:52;;;;;;;35.67;19.63;;;;;;;-143.98;100.00;68091.63;5071307;28;20169;-86
2021/03/09 10:17:24;;;;;;;37.53;20.42;;;;;;;-143.98;100.00;68091.63;5063860;28;20203;-86
2021/03/09 10:19:54;;;;;;;35.10;19.75;;;;;;;-143.98;100.00;68091.63;5045880;28;20064;-86
2021/03/09 10:22:25;;;;;;;38.53;19.10;;;;;;;-143.98;100.00;68091.63;5068790;28;20057;-86
2021/03/09 10:24:56;;;;;;;33.72;19.13;;;;;;;-143.98;100.00;68091.63;5075183;28;20045;-86
2021/03/09 10:27:23;;;;;;;34.95;18.90;;;;;;;-143.98;100.00;68091.63;5106902;28;20097;-86
2021/03/09 10:29:56;;;;;;;33.45;18.48;;;;;;;-143.98;100.00;68091.63;5092975;28;20063;-86
2021/03/09 10:32:23;;;;;;;32.53;18.88;;;;;;;-143.98;100.00;68091.63;5073815;28;20062;-86
2021/03/09 10:34:54;;;;;;;36.63;19.33;;;;;;;-143.98;100.00;68091.63;5062843;28;20060;-85
2021/03/09 10:37:38;;;;;;;33.60;19.13;;;;;;;-143.98;100.00;68091.63;5061479;28;20131;-84
2021/03/09 10:40:08;;;;;;;34.45;19.10;;;;;;;-143.98;100.00;68091.63;5074687;28;20056;-84
2021/03/09 10:42:48;;;;;;;33.13;18.10;;;;;;;-143.98;100.00;68091.63;5092869;28;20052;-84
2021/03/09 10:45:29;;;;;;;28.60;17.15;;;;;;;-143.98;100.00;68091.63;5061006;28;20074;-84
2021/03/09 10:47:56;;;;;;;33.90;19.02;;;;;;;-143.98;100.00;68091.63;5048420;28;20260;-84
2021/03/09 10:50:28;;;;;;;31.75;17.55;;;;;;;-143.98;100.00;68091.63;5070193;28;20331;-86
2021/03/09 10:52:55;;;;;;;31.95;17.90;;;;;;;-143.98;100.00;68091.63;5061884;28;20129;-84
2021/03/09 10:55:25;;;;;;;38.05;19.05;;;;;;;-143.98;100.00;68091.63;5082069;28;20048;-85
2021/03/09 10:57:52;;;;;;;31.98;18.30;;;;;;;-143.98;100.00;68091.63;5053495;28;20068;-85
2021/03/09 11:00:24;;;;;;;35.90;18.15;;;;;;;-143.98;100.00;68091.63;5086769;28;20043;-85
2021/03/09 11:02:57;;;;;;;33.22;16.75;;;;;;;-143.98;100.00;68091.63;5085075;28;20118;-84
2021/03/09 11:05:24;;;;;;;34.83;16.98;;;;;;;-143.98;100.00;68091.63;5078153;28;20044;-84
2021/03/09 11:08:08;;;;;;;39.40;18.27;;;;;;;-143.98;100.00;68091.63;5080469;28;20052;-84
2021/03/09 11:10:34;;;;;;;34.38;19.05;;;;;;;-143.98;100.00;68091.63;5089426;28;20070;-85
2021/03/09 11:13:01;;;;;;;42.58;20.58;;;;;;;-143.98;100.00;68091.63;5068544;28;20059;-85
2021/03/09 11:15:30;;;;;;;38.88;20.25;;;;;;;-143.98;100.00;68091.63;5060514;28;20053;-85
2021/03/09 11:17:57;;;;;;;39.83;20.15;;;;;;;-143.98;100.00;68091.63;5056715;28;20052;-85
2021/03/09 11:20:26;;;;;;;37.33;19.50;;;;;;;-143.98;100.00;68091.63;5059106;28;20060;-84
2021/03/09 11:22:55;;;;;;;36.58;19.83;;;;;;;-143.98;100.00;68091.63;5074117;28;20240;-85
2021/03/09 11:25:29;;;;;;;38.42;19.52;;;;;;;-143.98;100.00;68091.63;5055297;28;20056;-84
2021/03/09 11:27:59;;;;;;;38.15;21.40;;;;;;;-143.98;100.00;68091.63;5055102;28;20280;-85
2021/03/09 11:30:25;;;;;;;41.75;20.50;;;;;;;-143.98;100.00;68091.63;5038590;28;20072;-85
2021/03/09 11:32:51;;;;;;;38.70;19.77;;;;;;;-143.98;100.00;68091.63;5029112;28;20056;-84
2021/03/09 11:35:24;;;;;;;40.35;20.88;;;;;;;-143.98;100.00;68091.63;5046845;28;20080;-85
2021/03/09 11:37:50;;;;;;;41.67;21.35;;;;;;;-143.98;100.00;68091.63;5029671;28;20055;-85
2021/03/09 11:40:17;;;;;;;36.88;20.55;;;;;;;-143.98;100.00;68091.63;5031826;28;20065;-85
2021/03/09 11:42:46;;;;;;;38.15;20.25;;;;;;;-143.98;100.00;68091.63;5031818;28;20049;-85